Terminal Aerodrome Forecast
Issued by NWS

Home | Current Version | Previous Version | Text Only | Print | Product List | Glossary On
Versions: 1 2 3 4 5 6 7 8 9 10 11 12
000
FTUS45 KTFX 231100
TAFBZN
TAF
KBZN 231124Z 2312/2412 VRB05KT P6SM SCT150
     FM232100 20012KT P6SM SCT100 BKN250
     FM240100 20010KT P6SM SCT100
     FM240600 17005KT P6SM SKC=

USA.gov is the U.S. government's official web portal to all federal, state and local government web resources and services.